• Join FlightAware (Why Join?)
  • Login
  • US Flag 
02:54AM EST


 

Airport Tracker/Info


-or-


 

Live Flight TrackerFlight Track Log ✈ UAL4380 ✈ 10-Apr-2013 ✈ KIAH - KDAL

Flight Track Log - Related Links

Times and Time Zones

All times are in EDT time to prevent confusion due to time zone crossing. See the UAL4380 flight status page for this flight to view local times or setup timezone preferences in your user account.

Time Position Orientation Groundspeed Altitude Reporting Facility
EDT Latitude Longitude Course Direction KTS MPH feet Rate Location/Type
08:58AM 29.9786 -95.2981 346° North 175 201 1,000  Level Houston Center
08:59AM 30.0178 -95.2669 35° Northeast 260 299 2,300 1,380 Climbing Houston Center
09:00AM 30.0617 -95.2756 350° North 268 308 3,200 1,620 Climbing Houston Center
09:00AM 30.0994 -95.2883 344° North 302 348 4,000 2,220 Climbing Houston Center
09:01AM 30.2613 -95.4062 349° North  Level FlightAware Approximate
09:01AM 30.1439 -95.3000 347° North 295 339 5,500  Level Houston Center
09:02AM 30.3548 -95.4270 349° North  Level FlightAware Approximate
09:02AM 30.2294 -95.3197 349° North 312 359 7,600  Level Houston Center
09:03AM 30.4476 -95.4517 346° North  Level FlightAware Approximate
09:03AM 30.3092 -95.3561 338° Northwest 312 359 9,800  Level Houston Center
09:04AM 30.4064 -95.4000 339° North 311 358 11,400 1,260 Climbing Houston Center
09:05AM 30.4972 -95.4397 339° North 344 396 12,500 1,020 Climbing Houston Center
09:06AM 30.5931 -95.4850 338° Northwest 367 422 13,500 960 Climbing Houston Center
09:07AM 30.6983 -95.5133 347° North 384 442 14,500 960 Climbing Houston Center
09:08AM 30.8053 -95.5369 349° North 386 444 15,500 960 Climbing Houston Center
09:09AM 30.9158 -95.5611 349° North 395 455 16,500 900 Climbing Houston Center
09:10AM 31.0286 -95.5875 349° North 405 466 17,400 1,020 Climbing Houston Center
09:11AM 31.1675 -95.6183 349° North 416 479 18,700 720 Climbing Houston Center
09:12AM 31.2803 -95.6439 349° North 427 491 19,000 120 Climbing Fort Worth Center
09:13AM 31.4083 -95.6950 341° North 423 487 19,000  Level Fort Worth Center
09:14AM 31.5136 -95.7661 330° Northwest 428 493 19,000  Level Fort Worth Center
09:15AM 31.6211 -95.8372 331° Northwest 440 506 19,000  Level Fort Worth Center
09:16AM 31.7242 -95.9114 329° Northwest 440 506 19,000 -660 Level Fort Worth Center
09:17AM 31.8336 -95.9806 332° Northwest 445 512 17,700 -1,560 Descending Fort Worth Center
09:18AM 31.9408 -96.0547 330° Northwest 439 505 15,900 -2,100 Descending Fort Worth Center
09:19AM 32.0292 -96.1194 328° Northwest 413 475 13,500 -2,580 Descending Fort Worth Center
09:20AM 32.1322 -96.1794 334° Northwest 407 468 10,800 -1,800 Descending Fort Worth Center
09:21AM 32.2183 -96.2372 330° Northwest 399 459 9,900 -420 Descending Fort Worth Center
09:22AM 32.3233 -96.3022 332° Northwest 389 448 10,000  Climbing Fort Worth Center
09:23AM 32.4178 -96.3575 334° Northwest 383 441 10,000  Level Fort Worth Center
09:24AM 32.5142 -96.4181 332° Northwest 378 435 10,000 -300 Level Fort Worth Center
09:25AM 32.6022 -96.4714 333° Northwest 371 427 9,500 -1,200 Descending Fort Worth Center
09:26AM 32.6778 -96.5125 335° Northwest 310 357 7,700 -1,260 Descending Fort Worth Center
09:27AM 32.7275 -96.4650 39° Northeast 208 239 7,000 -1,260 Descending Fort Worth Center
09:28AM 32.6858 -96.4631 178° South 89 102 5,200 -1,020 Descending Fort Worth Center
09:29AM 32.6611 -96.5175 242° Southwest 135 155 5,000 -300 Descending Fort Worth Center
09:30AM 32.6636 -96.5817 273° West 196 226 4,700 -1,200 Descending Fort Worth Center
09:31AM 32.6850 -96.6656 287° West 236 272 2,600 -1,200 Descending Fort Worth Center
09:32AM 32.7167 -96.7072 312° West 212 244 2,400 -60 Descending Fort Worth Center
09:33AM 32.7481 -96.7464 314° West 166 191 2,500 60 Climbing Fort Worth Center